createdAt,value
2016-07-21T00:00:29.904Z,1006.4
2016-07-21T00:01:29.906Z,1006.41
2016-07-21T00:02:29.920Z,1006.41
2016-07-21T00:03:29.922Z,1006.39
2016-07-21T00:04:31.031Z,1006.4
2016-07-21T00:05:29.936Z,1006.38
2016-07-21T00:06:29.945Z,1006.38
2016-07-21T00:07:29.953Z,1006.38
2016-07-21T00:08:29.965Z,1006.39
2016-07-21T00:09:29.968Z,1006.37
2016-07-21T00:10:29.977Z,1006.37
2016-07-21T00:11:29.985Z,1006.39
2016-07-21T00:12:29.992Z,1006.38
2016-07-21T00:13:30.000Z,1006.38
2016-07-21T00:14:30.008Z,1006.39
2016-07-21T00:15:30.020Z,1006.37
2016-07-21T00:16:30.025Z,1006.4
2016-07-21T00:17:30.034Z,1006.44
2016-07-21T00:18:30.042Z,1006.42
2016-07-21T00:19:30.052Z,1006.4
2016-07-21T00:20:30.057Z,1006.39
2016-07-21T00:21:30.066Z,1006.4
2016-07-21T00:22:30.076Z,1006.42
2016-07-21T00:23:30.083Z,1006.42
2016-07-21T00:24:30.090Z,1006.45
2016-07-21T00:25:30.104Z,1006.45
2016-07-21T00:26:30.107Z,1006.46
2016-07-21T00:27:30.113Z,1006.48
2016-07-21T00:28:30.124Z,1006.47
2016-07-21T00:29:30.131Z,1006.48
2016-07-21T00:30:30.141Z,1006.52
2016-07-21T00:31:30.146Z,1006.5
2016-07-21T00:32:30.154Z,1006.47
2016-07-21T00:33:30.161Z,1006.48
2016-07-21T00:34:30.170Z,1006.46
2016-07-21T00:35:30.981Z,1006.49
2016-07-21T00:36:30.187Z,1006.47
2016-07-21T00:37:30.195Z,1006.48
2016-07-21T00:38:30.202Z,1006.48
2016-07-21T00:39:30.209Z,1006.45
2016-07-21T00:40:30.218Z,1006.44
2016-07-21T00:41:30.231Z,1006.44
2016-07-21T00:42:30.233Z,1006.45
2016-07-21T00:43:30.240Z,1006.46
2016-07-21T00:44:30.249Z,1006.4
2016-07-21T00:45:30.256Z,1006.42
2016-07-21T00:46:31.266Z,1006.39
2016-07-21T00:47:30.277Z,1006.37
2016-07-21T00:48:30.280Z,1006.38
2016-07-21T00:49:30.286Z,1006.4
2016-07-21T00:50:30.296Z,1006.41
2016-07-21T00:51:30.302Z,1006.41
2016-07-21T00:52:30.310Z,1006.43
2016-07-21T00:53:30.323Z,1006.46
2016-07-21T00:54:30.325Z,1006.49
2016-07-21T00:55:30.334Z,1006.47
2016-07-21T00:56:30.341Z,1006.49
2016-07-21T00:57:30.349Z,1006.49
2016-07-21T00:58:30.359Z,1006.46
2016-07-21T00:59:30.368Z,1006.5
2016-07-21T01:00:30.372Z,1006.47
2016-07-21T01:01:30.379Z,1006.42
2016-07-21T01:02:30.389Z,1006.42
2016-07-21T01:03:30.396Z,1006.39
2016-07-21T01:04:30.403Z,1006.42
2016-07-21T01:05:30.412Z,1006.42
2016-07-21T01:06:30.420Z,1006.4
2016-07-21T01:07:30.427Z,1006.43
2016-07-21T01:08:30.434Z,1006.42
2016-07-21T01:09:30.443Z,1006.47
2016-07-21T01:10:30.450Z,1006.47
2016-07-21T01:11:30.459Z,1006.45
2016-07-21T01:12:30.467Z,1006.47
2016-07-21T01:13:30.525Z,1006.48
2016-07-21T01:14:30.484Z,1006.48
2016-07-21T01:15:30.490Z,1006.48
2016-07-21T01:16:30.499Z,1006.51
2016-07-21T01:17:30.507Z,1006.48
2016-07-21T01:18:30.516Z,1006.48
2016-07-21T01:19:30.523Z,1006.5
2016-07-21T01:20:30.531Z,1006.48
2016-07-21T01:21:30.540Z,1006.42
2016-07-21T01:22:30.547Z,1006.44
2016-07-21T01:23:30.555Z,1006.44
2016-07-21T01:24:30.564Z,1006.45
2016-07-21T01:25:30.573Z,1006.44
2016-07-21T01:26:30.581Z,1006.44
2016-07-21T01:27:30.589Z,1006.45
2016-07-21T01:28:30.597Z,1006.47
2016-07-21T01:29:30.604Z,1006.44
2016-07-21T01:30:30.613Z,1006.45
2016-07-21T01:31:30.622Z,1006.48
2016-07-21T01:32:30.630Z,1006.44
2016-07-21T01:33:30.636Z,1006.42
2016-07-21T01:34:30.645Z,1006.45
2016-07-21T01:35:30.653Z,1006.47
2016-07-21T01:36:30.659Z,1006.41
2016-07-21T01:37:30.668Z,1006.42
2016-07-21T01:38:30.675Z,1006.43
2016-07-21T01:39:30.686Z,1006.43
2016-07-21T01:40:30.692Z,1006.45
2016-07-21T01:41:30.700Z,1006.46
2016-07-21T01:42:30.708Z,1006.47
2016-07-21T01:43:30.716Z,1006.45
2016-07-21T01:44:30.724Z,1006.53
2016-07-21T01:45:30.732Z,1006.48
2016-07-21T01:46:30.739Z,1006.46
2016-07-21T01:47:30.749Z,1006.44
2016-07-21T01:48:30.755Z,1006.45
2016-07-21T01:49:30.763Z,1006.45
2016-07-21T01:50:30.770Z,1006.44
2016-07-21T01:51:30.780Z,1006.41
2016-07-21T01:52:30.787Z,1006.44
2016-07-21T01:53:30.795Z,1006.45
2016-07-21T01:54:31.255Z,1006.48
2016-07-21T01:55:30.810Z,1006.43
2016-07-21T01:56:30.818Z,1006.46
2016-07-21T01:57:30.827Z,1006.44
2016-07-21T01:58:30.832Z,1006.49
2016-07-21T01:59:30.840Z,1006.46
2016-07-21T02:00:30.849Z,1006.5
2016-07-21T02:01:30.857Z,1006.46
2016-07-21T02:02:30.865Z,1006.45
2016-07-21T02:03:30.873Z,1006.51
2016-07-21T02:04:30.880Z,1006.54
2016-07-21T02:05:31.489Z,1006.54
2016-07-21T02:06:30.894Z,1006.52
2016-07-21T02:07:30.906Z,1006.55
2016-07-21T02:08:30.912Z,1006.57
2016-07-21T02:09:30.919Z,1006.6
2016-07-21T02:10:30.928Z,1006.62
2016-07-21T02:11:30.935Z,1006.57
2016-07-21T02:12:30.993Z,1006.58
2016-07-21T02:13:30.950Z,1006.56
2016-07-21T02:14:30.958Z,1006.58
2016-07-21T02:15:30.967Z,1006.61
2016-07-21T02:16:31.925Z,1006.59
2016-07-21T02:17:30.981Z,1006.59
2016-07-21T02:18:30.989Z,1006.62
2016-07-21T02:19:30.998Z,1006.64
2016-07-21T02:20:31.003Z,1006.66
2016-07-21T02:21:31.012Z,1006.67
2016-07-21T02:22:31.022Z,1006.68
2016-07-21T02:23:31.030Z,1006.66
2016-07-21T02:24:31.037Z,1006.71
2016-07-21T02:25:31.045Z,1006.72
2016-07-21T02:26:31.053Z,1006.75
2016-07-21T02:27:31.062Z,1006.75
2016-07-21T02:28:31.070Z,1006.8
2016-07-21T02:29:31.077Z,1006.77
2016-07-21T02:30:31.084Z,1006.8
2016-07-21T02:31:31.092Z,1006.78
2016-07-21T02:32:31.101Z,1006.8
2016-07-21T02:33:31.109Z,1006.77
2016-07-21T02:34:31.118Z,1006.77
2016-07-21T02:35:31.124Z,1006.74
2016-07-21T02:36:31.132Z,1006.76
2016-07-21T02:37:31.140Z,1006.77
2016-07-21T02:38:31.148Z,1006.78
2016-07-21T02:39:31.155Z,1006.78
2016-07-21T02:40:31.163Z,1006.83
2016-07-21T02:41:31.172Z,1006.85
2016-07-21T02:42:31.179Z,1006.84
2016-07-21T02:43:31.188Z,1006.85
2016-07-21T02:44:31.195Z,1006.86
2016-07-21T02:45:31.202Z,1006.85
2016-07-21T02:46:31.211Z,1006.88
2016-07-21T02:47:31.269Z,1006.92
2016-07-21T02:48:31.226Z,1006.92
2016-07-21T02:49:31.235Z,1006.96
2016-07-21T02:50:31.243Z,1006.95
2016-07-21T02:51:31.251Z,1007
2016-07-21T02:52:31.259Z,1007.01
2016-07-21T02:53:31.265Z,1007.01
2016-07-21T02:54:31.274Z,1007.04
2016-07-21T02:55:31.283Z,1007.07
2016-07-21T02:56:31.291Z,1007.05
2016-07-21T02:57:31.298Z,1007.07
2016-07-21T02:58:31.505Z,1007.1
2016-07-21T02:59:31.314Z,1007.07
2016-07-21T03:00:31.321Z,1007.11
2016-07-21T03:01:31.330Z,1007.11
2016-07-21T03:02:31.338Z,1007.11
2016-07-21T03:03:31.347Z,1007.12
2016-07-21T03:04:31.352Z,1007.11
2016-07-21T03:05:31.362Z,1007.08
2016-07-21T03:06:31.369Z,1007.07
2016-07-21T03:07:31.378Z,1007.1
2016-07-21T03:08:31.386Z,1007.11
2016-07-21T03:09:32.517Z,1007.11
2016-07-21T03:10:31.402Z,1007.11
2016-07-21T03:11:31.409Z,1007.08
2016-07-21T03:12:31.416Z,1007.11
2016-07-21T03:13:31.424Z,1007.14
2016-07-21T03:14:31.433Z,1007.14
2016-07-21T03:15:31.440Z,1007.15
2016-07-21T03:16:31.449Z,1007.1
2016-07-21T03:17:31.456Z,1007.08
2016-07-21T03:18:31.465Z,1007.11
2016-07-21T03:19:31.472Z,1007.15
2016-07-21T03:20:31.486Z,1007.09
2016-07-21T03:21:31.488Z,1007.11
2016-07-21T03:22:31.496Z,1007.14
2016-07-21T03:23:31.504Z,1007.13
2016-07-21T03:24:31.513Z,1007.13
2016-07-21T03:25:31.520Z,1007.16
2016-07-21T03:26:31.526Z,1007.15
2016-07-21T03:27:31.536Z,1007.17
2016-07-21T03:28:31.542Z,1007.15
2016-07-21T03:29:31.551Z,1007.19
2016-07-21T03:30:31.557Z,1007.13
2016-07-21T03:31:31.568Z,1007.12
2016-07-21T03:32:31.574Z,1007.13
2016-07-21T03:33:31.582Z,1007.15
2016-07-21T03:34:31.591Z,1007.14
2016-07-21T03:35:31.600Z,1007.14
2016-07-21T03:36:31.608Z,1007.12
2016-07-21T03:37:31.614Z,1007.14
2016-07-21T03:38:31.622Z,1007.16
2016-07-21T03:39:31.630Z,1007.14
2016-07-21T03:40:31.640Z,1007.17
2016-07-21T03:41:31.646Z,1007.11
2016-07-21T03:42:31.655Z,1007.08
2016-07-21T03:43:31.662Z,1007.1
2016-07-21T03:44:31.671Z,1007.1
2016-07-21T03:45:31.679Z,1007.08
2016-07-21T03:46:31.688Z,1007.05
2016-07-21T03:47:31.694Z,1007.08
2016-07-21T03:48:31.702Z,1007.1
2016-07-21T03:49:31.710Z,1007.13
2016-07-21T03:50:31.719Z,1007.13
2016-07-21T03:51:31.727Z,1007.15
2016-07-21T03:52:31.731Z,1007.15
2016-07-21T03:53:31.743Z,1007.2
2016-07-21T03:54:31.750Z,1007.19
2016-07-21T03:55:31.757Z,1007.2
2016-07-21T03:56:31.766Z,1007.22
2016-07-21T03:57:31.773Z,1007.24
2016-07-21T03:58:31.781Z,1007.19
2016-07-21T03:59:31.789Z,1007.2
2016-07-21T04:00:31.798Z,1007.17
2016-07-21T04:01:31.806Z,1007.18
2016-07-21T04:02:31.828Z,1007.18
2016-07-21T04:03:31.821Z,1007.21
2016-07-21T04:04:31.830Z,1007.21
2016-07-21T04:05:31.838Z,1007.25
2016-07-21T04:06:31.894Z,1007.19
2016-07-21T04:07:31.854Z,1007.23
2016-07-21T04:08:31.862Z,1007.22
2016-07-21T04:09:31.869Z,1007.23
2016-07-21T04:10:31.877Z,1007.22
2016-07-21T04:11:31.886Z,1007.25
2016-07-21T04:12:31.899Z,1007.21
2016-07-21T04:13:31.902Z,1007.24
2016-07-21T04:14:31.910Z,1007.21
2016-07-21T04:15:31.969Z,1007.25
2016-07-21T04:16:31.927Z,1007.29
2016-07-21T04:17:32.634Z,1007.29
2016-07-21T04:18:31.942Z,1007.26
2016-07-21T04:19:31.951Z,1007.26
2016-07-21T04:20:31.958Z,1007.28
2016-07-21T04:21:31.966Z,1007.27
2016-07-21T04:22:31.974Z,1007.31
2016-07-21T04:23:31.980Z,1007.34
2016-07-21T04:24:31.991Z,1007.32
2016-07-21T04:25:31.999Z,1007.33
2016-07-21T04:26:32.007Z,1007.33
2016-07-21T04:27:32.015Z,1007.26
2016-07-21T04:28:32.925Z,1007.27
2016-07-21T04:29:32.032Z,1007.31
2016-07-21T04:30:32.039Z,1007.33
2016-07-21T04:31:32.048Z,1007.32
2016-07-21T04:32:32.055Z,1007.36
2016-07-21T04:33:32.063Z,1007.35
2016-07-21T04:34:32.072Z,1007.35
2016-07-21T04:35:32.080Z,1007.36
2016-07-21T04:36:32.089Z,1007.39
2016-07-21T04:37:32.097Z,1007.39
2016-07-21T04:38:32.105Z,1007.4
2016-07-21T04:39:32.113Z,1007.37
2016-07-21T04:40:32.120Z,1007.37
2016-07-21T04:41:32.129Z,1007.37
2016-07-21T04:42:32.138Z,1007.41
2016-07-21T04:43:32.145Z,1007.41
2016-07-21T04:44:32.153Z,1007.4
2016-07-21T04:45:32.161Z,1007.41
2016-07-21T04:46:32.170Z,1007.43
2016-07-21T04:47:32.178Z,1007.43
2016-07-21T04:48:32.185Z,1007.45
2016-07-21T04:49:32.194Z,1007.46
2016-07-21T04:50:32.201Z,1007.49
2016-07-21T04:51:32.209Z,1007.51
2016-07-21T04:52:32.218Z,1007.51
2016-07-21T04:53:32.227Z,1007.52
2016-07-21T04:54:32.234Z,1007.49
2016-07-21T04:55:32.246Z,1007.52
2016-07-21T04:56:32.251Z,1007.54
2016-07-21T04:57:32.259Z,1007.56
2016-07-21T04:58:32.266Z,1007.56
2016-07-21T04:59:32.374Z,1007.59
2016-07-21T05:00:32.284Z,1007.6
2016-07-21T05:01:32.290Z,1007.6
2016-07-21T05:02:32.298Z,1007.61
2016-07-21T05:03:32.306Z,1007.64
2016-07-21T05:04:32.314Z,1007.69
2016-07-21T05:05:32.321Z,1007.7
2016-07-21T05:06:32.330Z,1007.72
2016-07-21T05:07:32.339Z,1007.69
2016-07-21T05:08:32.346Z,1007.7
2016-07-21T05:09:32.353Z,1007.76
2016-07-21T05:10:32.762Z,1007.8
2016-07-21T05:11:32.369Z,1007.8
2016-07-21T05:12:32.378Z,1007.8
2016-07-21T05:13:32.385Z,1007.83
2016-07-21T05:14:32.394Z,1007.87
2016-07-21T05:15:32.403Z,1007.87
2016-07-21T05:16:32.410Z,1007.91
2016-07-21T05:17:32.420Z,1007.91
2016-07-21T05:18:32.426Z,1007.98
2016-07-21T05:19:32.435Z,1007.98
2016-07-21T05:20:32.444Z,1008
2016-07-21T05:21:33.353Z,1008.08
2016-07-21T05:22:32.461Z,1008.06
2016-07-21T05:23:32.469Z,1008.11
2016-07-21T05:24:32.477Z,1008.14
2016-07-21T05:25:32.486Z,1008.07
2016-07-21T05:26:32.494Z,1008.05
2016-07-21T05:27:32.503Z,1008.05
2016-07-21T05:28:32.510Z,1008.05
2016-07-21T05:29:32.519Z,1008.01
2016-07-21T05:30:32.528Z,1007.96
2016-07-21T05:31:32.536Z,1008.04
2016-07-21T05:32:32.546Z,1008.06
2016-07-21T05:33:32.554Z,1008.01
2016-07-21T05:34:32.562Z,1008.04
2016-07-21T05:35:32.571Z,1008.07
2016-07-21T05:36:32.579Z,1008.1
2016-07-21T05:37:32.588Z,1008.18
2016-07-21T05:38:32.594Z,1008.1
2016-07-21T05:39:32.604Z,1008.06
2016-07-21T05:40:32.613Z,1008.09
2016-07-21T05:41:32.621Z,1008.07
2016-07-21T05:42:32.629Z,1008.11
2016-07-21T05:43:32.637Z,1008.09
2016-07-21T05:44:32.644Z,1008.08
2016-07-21T05:45:32.653Z,1008.06
2016-07-21T05:46:32.661Z,1008.18
2016-07-21T05:47:32.669Z,1008.17
2016-07-21T05:48:32.677Z,1008.1
2016-07-21T05:49:32.691Z,1008.03
2016-07-21T05:50:32.706Z,1008.03
2016-07-21T05:51:32.703Z,1008.07
2016-07-21T05:52:32.708Z,1008.09
2016-07-21T05:53:32.719Z,1008.1
2016-07-21T05:54:32.726Z,1008.13
2016-07-21T05:55:32.734Z,1008.14
2016-07-21T05:56:32.742Z,1008.18
2016-07-21T05:57:32.750Z,1008.13
2016-07-21T05:58:32.759Z,1008.15
2016-07-21T05:59:32.768Z,1008.14
2016-07-21T06:00:32.774Z,1008.21
2016-07-21T06:01:32.785Z,1008.19
2016-07-21T06:02:32.790Z,1008.28
2016-07-21T06:03:32.998Z,1008.3
2016-07-21T06:04:32.806Z,1008.5
2016-07-21T06:05:32.814Z,1008.36
2016-07-21T06:06:32.822Z,1008.5
2016-07-21T06:07:32.829Z,1008.58
2016-07-21T06:08:32.839Z,1008.48
2016-07-21T06:09:32.847Z,1008.49
2016-07-21T06:10:32.855Z,1008.62
2016-07-21T06:11:32.863Z,1008.75
2016-07-21T06:12:32.873Z,1008.8
2016-07-21T06:13:32.881Z,1008.84
2016-07-21T06:14:33.689Z,1008.83
2016-07-21T06:15:32.898Z,1008.84
2016-07-21T06:16:32.906Z,1008.76
2016-07-21T06:17:32.917Z,1008.74
2016-07-21T06:18:32.924Z,1008.62
2016-07-21T06:19:32.933Z,1008.57
2016-07-21T06:20:32.943Z,1008.74
2016-07-21T06:21:32.951Z,1008.83
2016-07-21T06:22:32.961Z,1008.82
2016-07-21T06:23:32.970Z,1008.75
2016-07-21T06:24:32.980Z,1008.67
2016-07-21T06:25:33.889Z,1008.72
2016-07-21T06:26:32.997Z,1008.75
2016-07-21T06:27:33.009Z,1008.89
2016-07-21T06:28:33.016Z,1008.92
2016-07-21T06:29:33.025Z,1008.88
2016-07-21T06:30:33.035Z,1008.63
2016-07-21T06:31:33.045Z,1008.55
2016-07-21T06:32:33.053Z,1008.72
2016-07-21T06:33:33.062Z,1008.68
2016-07-21T06:34:33.072Z,1008.72
2016-07-21T06:35:33.081Z,1008.86
2016-07-21T06:36:33.991Z,1008.88
2016-07-21T06:37:33.102Z,1009.18
2016-07-21T06:38:33.110Z,1009.25
2016-07-21T06:39:33.120Z,1009.07
2016-07-21T06:40:33.130Z,1009.09
2016-07-21T06:41:33.141Z,1009.19
2016-07-21T06:42:33.152Z,1009.15
2016-07-21T06:43:33.160Z,1009.16
2016-07-21T06:44:33.170Z,1008.9
2016-07-21T06:45:33.182Z,1008.76
2016-07-21T06:46:33.191Z,1008.95
2016-07-21T06:47:33.200Z,1008.82
2016-07-21T06:48:33.212Z,1008.8
2016-07-21T06:49:33.221Z,1009.25
2016-07-21T06:50:33.232Z,1009.1
2016-07-21T06:51:33.893Z,1009.09
2016-07-21T06:52:33.253Z,1009.11
2016-07-21T06:53:33.263Z,1009.16
2016-07-21T06:54:33.273Z,1009.08
2016-07-21T06:55:33.284Z,1008.83
2016-07-21T06:56:33.294Z,1008.66
2016-07-21T06:57:33.307Z,1008.68
2016-07-21T06:58:33.314Z,1008.81
2016-07-21T06:59:33.325Z,1009.21
2016-07-21T07:00:33.337Z,1009.11
2016-07-21T07:01:33.346Z,1009.17
2016-07-21T07:02:33.359Z,1009.09
2016-07-21T07:03:33.368Z,1009.07
2016-07-21T07:04:33.377Z,1009.25
2016-07-21T07:05:33.389Z,1009.25
2016-07-21T07:06:33.400Z,1009.22
2016-07-21T07:07:33.410Z,1009.26
2016-07-21T07:08:33.423Z,1009.16
2016-07-21T07:09:33.432Z,1009.19
2016-07-21T07:10:33.445Z,1009.21
2016-07-21T07:11:33.456Z,1009.13
2016-07-21T07:12:33.468Z,1009.14
2016-07-21T07:13:33.529Z,1009.06
2016-07-21T07:14:33.488Z,1008.89
2016-07-21T07:15:33.502Z,1008.84
2016-07-21T07:16:33.512Z,1008.89
2016-07-21T07:17:33.524Z,1008.93
2016-07-21T07:18:33.536Z,1008.98
2016-07-21T07:19:33.546Z,1009.08
2016-07-21T07:20:33.557Z,1009.21
2016-07-21T07:21:33.569Z,1009.27
2016-07-21T07:22:34.429Z,1009.19
2016-07-21T07:23:33.591Z,1008.99
2016-07-21T07:24:33.606Z,1008.93
2016-07-21T07:25:33.613Z,1009.06
2016-07-21T07:26:33.624Z,1009.34
2016-07-21T07:27:33.635Z,1009.33
2016-07-21T07:28:33.647Z,1009.21
2016-07-21T07:29:33.663Z,1009.46
2016-07-21T07:30:33.669Z,1009.44
2016-07-21T07:31:33.680Z,1009.3
2016-07-21T07:32:33.692Z,1009.37
2016-07-21T07:33:33.705Z,1009.44
2016-07-21T07:34:33.715Z,1009.41
2016-07-21T07:35:33.728Z,1009.42
2016-07-21T07:36:33.739Z,1009.48
2016-07-21T07:37:34.355Z,1009.49
2016-07-21T07:38:33.763Z,1009.49
2016-07-21T07:39:33.777Z,1009.45
2016-07-21T07:40:33.790Z,1009.44
2016-07-21T07:41:33.801Z,1009.39
2016-07-21T07:42:33.812Z,1009.42
2016-07-21T07:43:33.825Z,1009.24
2016-07-21T07:44:33.838Z,1009.02
2016-07-21T07:45:33.853Z,1008.92
2016-07-21T07:46:33.864Z,1008.93
2016-07-21T07:47:33.876Z,1008.91
2016-07-21T07:48:33.888Z,1008.86
2016-07-21T07:49:33.900Z,1008.82
2016-07-21T07:50:33.910Z,1008.81
2016-07-21T07:51:33.921Z,1008.76
2016-07-21T07:52:33.932Z,1008.76
2016-07-21T07:53:33.942Z,1008.78
2016-07-21T07:54:33.957Z,1008.78
2016-07-21T07:55:33.964Z,1008.8
2016-07-21T07:56:33.972Z,1008.8
2016-07-21T07:57:33.988Z,1008.77
2016-07-21T07:58:33.996Z,1008.75
2016-07-21T07:59:34.005Z,1008.78
2016-07-21T08:00:34.015Z,1008.75
2016-07-21T08:01:34.024Z,1008.79
2016-07-21T08:02:34.036Z,1008.77
2016-07-21T08:03:34.044Z,1008.74
2016-07-21T08:04:34.053Z,1008.77
2016-07-21T08:05:34.065Z,1008.83
2016-07-21T08:06:34.074Z,1008.77
2016-07-21T08:07:34.084Z,1008.82
2016-07-21T08:08:34.894Z,1008.83
2016-07-21T08:09:34.103Z,1008.81
2016-07-21T08:10:34.113Z,1008.76
2016-07-21T08:11:34.122Z,1008.78
2016-07-21T08:12:34.131Z,1008.83
2016-07-21T08:13:34.142Z,1008.84
2016-07-21T08:14:34.152Z,1008.83
2016-07-21T08:15:34.161Z,1008.85
2016-07-21T08:16:34.171Z,1008.81
2016-07-21T08:17:34.180Z,1008.79
2016-07-21T08:18:34.189Z,1008.81
2016-07-21T08:19:34.198Z,1008.82
2016-07-21T08:20:34.209Z,1008.83
2016-07-21T08:21:34.217Z,1008.85
2016-07-21T08:22:34.227Z,1008.82
2016-07-21T08:23:34.787Z,1008.86
2016-07-21T08:24:34.252Z,1008.76
2016-07-21T08:25:34.256Z,1008.78
2016-07-21T08:26:34.314Z,1008.81
2016-07-21T08:27:34.279Z,1008.79
2016-07-21T08:28:34.284Z,1008.87
2016-07-21T08:29:34.293Z,1008.83
2016-07-21T08:30:34.305Z,1008.84
2016-07-21T08:31:34.312Z,1008.82
2016-07-21T08:32:34.322Z,1008.83
2016-07-21T08:33:34.328Z,1008.81
2016-07-21T08:34:34.340Z,1008.85
2016-07-21T08:35:34.350Z,1008.83
2016-07-21T08:36:34.358Z,1008.79
2016-07-21T08:37:34.367Z,1008.84
2016-07-21T08:38:34.715Z,1008.79
2016-07-21T08:39:34.385Z,1008.79
2016-07-21T08:40:34.395Z,1008.77
2016-07-21T08:41:34.404Z,1008.77
2016-07-21T08:42:34.414Z,1008.78
2016-07-21T08:43:34.423Z,1008.78
2016-07-21T08:44:34.431Z,1008.8
2016-07-21T08:45:34.442Z,1008.79
2016-07-21T08:46:34.451Z,1008.75
2016-07-21T08:47:34.460Z,1008.8
2016-07-21T08:48:34.469Z,1008.82
2016-07-21T08:49:34.477Z,1008.81
2016-07-21T08:50:34.488Z,1008.78
2016-07-21T08:51:34.496Z,1008.76
2016-07-21T08:52:34.505Z,1008.76
2016-07-21T08:53:34.516Z,1008.81
2016-07-21T08:54:35.074Z,1008.79
2016-07-21T08:55:34.533Z,1008.8
2016-07-21T08:56:34.542Z,1008.86
2016-07-21T08:57:34.553Z,1008.8
2016-07-21T08:58:34.561Z,1008.83
2016-07-21T08:59:34.570Z,1008.82
2016-07-21T09:00:34.580Z,1008.81
2016-07-21T09:01:34.590Z,1008.81
2016-07-21T09:02:34.599Z,1008.83
2016-07-21T09:03:34.607Z,1008.77
2016-07-21T09:04:34.616Z,1008.78
2016-07-21T09:05:34.626Z,1008.77
2016-07-21T09:06:34.634Z,1008.78
2016-07-21T09:07:34.645Z,1008.8
2016-07-21T09:08:34.654Z,1008.8
2016-07-21T09:09:34.912Z,1008.8
2016-07-21T09:10:34.673Z,1008.8
2016-07-21T09:11:34.687Z,1008.88
2016-07-21T09:12:34.690Z,1008.88
2016-07-21T09:13:34.698Z,1008.8
2016-07-21T09:14:34.708Z,1008.83
2016-07-21T09:15:34.717Z,1008.77
2016-07-21T09:16:34.728Z,1008.8
2016-07-21T09:17:34.736Z,1008.75
2016-07-21T09:18:35.745Z,1008.77
2016-07-21T09:19:34.754Z,1008.8
2016-07-21T09:20:34.764Z,1008.82
2016-07-21T09:21:34.773Z,1008.8
2016-07-21T09:22:34.782Z,1008.81
2016-07-21T09:23:34.792Z,1008.78
2016-07-21T09:24:34.799Z,1008.78
2016-07-21T09:25:34.808Z,1008.79
2016-07-21T09:26:34.818Z,1008.8
2016-07-21T09:27:34.828Z,1008.75
2016-07-21T09:28:34.836Z,1008.76
2016-07-21T09:29:34.845Z,1008.77
2016-07-21T09:30:34.855Z,1008.87
2016-07-21T09:31:34.914Z,1008.8
2016-07-21T09:32:34.871Z,1008.83
2016-07-21T09:33:34.883Z,1008.89
2016-07-21T09:34:34.891Z,1008.79
2016-07-21T09:35:34.900Z,1008.84
2016-07-21T09:36:34.909Z,1008.79
2016-07-21T09:37:34.918Z,1008.82
2016-07-21T09:38:34.927Z,1008.78
2016-07-21T09:39:34.937Z,1008.75
2016-07-21T09:40:35.495Z,1008.76
2016-07-21T09:41:34.956Z,1008.71
2016-07-21T09:42:34.963Z,1008.73
2016-07-21T09:43:34.973Z,1008.76
2016-07-21T09:44:34.980Z,1008.73
2016-07-21T09:45:34.991Z,1008.7
2016-07-21T09:46:35.004Z,1008.74
2016-07-21T09:47:35.008Z,1008.7
2016-07-21T09:48:35.019Z,1008.75
2016-07-21T09:49:35.028Z,1008.67
2016-07-21T09:50:35.037Z,1008.69
2016-07-21T09:51:35.045Z,1008.72
2016-07-21T09:52:35.056Z,1008.68
2016-07-21T09:53:35.062Z,1008.68
2016-07-21T09:54:35.071Z,1008.72
2016-07-21T09:55:35.079Z,1008.71
2016-07-21T09:56:35.090Z,1008.71
2016-07-21T09:57:35.098Z,1008.68
2016-07-21T09:58:35.109Z,1008.69
2016-07-21T09:59:35.117Z,1008.69
2016-07-21T10:00:35.126Z,1008.67
2016-07-21T10:01:35.134Z,1008.61
2016-07-21T10:02:35.143Z,1008.62
2016-07-21T10:03:35.154Z,1008.66
2016-07-21T10:04:36.113Z,1008.69
2016-07-21T10:05:35.168Z,1008.66
2016-07-21T10:06:35.182Z,1008.7
2016-07-21T10:07:35.189Z,1008.71
2016-07-21T10:08:35.196Z,1008.71
2016-07-21T10:09:35.205Z,1008.68
2016-07-21T10:10:35.217Z,1008.68
2016-07-21T10:11:35.226Z,1008.67
2016-07-21T10:12:35.233Z,1008.68
2016-07-21T10:13:35.243Z,1008.66
2016-07-21T10:14:35.253Z,1008.73
2016-07-21T10:15:35.260Z,1008.71
2016-07-21T10:16:35.270Z,1008.73
2016-07-21T10:17:35.280Z,1008.71
2016-07-21T10:18:35.289Z,1008.75
2016-07-21T10:19:35.298Z,1008.8
2016-07-21T10:20:35.307Z,1008.72
2016-07-21T10:21:35.316Z,1008.8
2016-07-21T10:22:35.327Z,1008.75
2016-07-21T10:23:35.335Z,1008.71
2016-07-21T10:24:35.344Z,1008.67
2016-07-21T10:25:35.354Z,1008.72
2016-07-21T10:26:35.564Z,1008.69
2016-07-21T10:27:35.372Z,1008.67
2016-07-21T10:28:35.381Z,1008.68
2016-07-21T10:29:35.391Z,1008.72
2016-07-21T10:30:35.399Z,1008.67
2016-07-21T10:31:35.459Z,1008.7
2016-07-21T10:32:35.417Z,1008.7
2016-07-21T10:33:35.428Z,1008.73
2016-07-21T10:34:35.435Z,1008.72
2016-07-21T10:35:35.444Z,1008.7
2016-07-21T10:36:35.455Z,1008.67
2016-07-21T10:37:35.462Z,1008.65
2016-07-21T10:38:35.472Z,1008.72
2016-07-21T10:39:35.481Z,1008.65
2016-07-21T10:40:35.491Z,1008.6
2016-07-21T10:41:36.367Z,1008.6
2016-07-21T10:42:35.508Z,1008.57
2016-07-21T10:43:35.518Z,1008.54
2016-07-21T10:44:35.528Z,1008.55
2016-07-21T10:45:35.535Z,1008.67
2016-07-21T10:46:35.546Z,1008.6
2016-07-21T10:47:35.555Z,1008.58
2016-07-21T10:48:35.564Z,1008.64
2016-07-21T10:49:35.575Z,1008.62
2016-07-21T10:50:35.582Z,1008.6
2016-07-21T10:51:35.592Z,1008.63
2016-07-21T10:52:35.600Z,1008.66
2016-07-21T10:53:35.609Z,1008.56
2016-07-21T10:54:35.620Z,1008.6
2016-07-21T10:55:35.629Z,1008.59
2016-07-21T10:56:35.638Z,1008.66
2016-07-21T10:57:35.647Z,1008.62
2016-07-21T10:58:35.662Z,1008.59
2016-07-21T10:59:35.737Z,1008.52
2016-07-21T11:00:35.676Z,1008.61
2016-07-21T11:01:35.685Z,1008.58
2016-07-21T11:02:35.693Z,1008.54
2016-07-21T11:03:36.002Z,1008.5
2016-07-21T11:04:35.711Z,1008.53
2016-07-21T11:05:35.721Z,1008.54
2016-07-21T11:06:35.729Z,1008.6
2016-07-21T11:07:35.737Z,1008.61
2016-07-21T11:08:35.747Z,1008.55
2016-07-21T11:09:35.756Z,1008.6
2016-07-21T11:10:35.767Z,1008.62
2016-07-21T11:11:35.774Z,1008.6
2016-07-21T11:12:35.784Z,1008.61
2016-07-21T11:13:35.794Z,1008.61
2016-07-21T11:14:35.802Z,1008.57
2016-07-21T11:15:35.811Z,1008.52
2016-07-21T11:16:35.821Z,1008.53
2016-07-21T11:17:35.830Z,1008.53
2016-07-21T11:18:35.841Z,1008.63
2016-07-21T11:19:35.898Z,1008.57
2016-07-21T11:20:36.021Z,1008.5
2016-07-21T11:21:35.865Z,1008.53
2016-07-21T11:22:35.874Z,1008.45
2016-07-21T11:23:35.884Z,1008.46
2016-07-21T11:24:35.901Z,1008.46
2016-07-21T11:25:35.904Z,1008.49
2016-07-21T11:26:35.912Z,1008.44
2016-07-21T11:27:35.921Z,1008.46
2016-07-21T11:28:35.934Z,1008.48
2016-07-21T11:29:35.938Z,1008.46
2016-07-21T11:30:35.948Z,1008.4
2016-07-21T11:31:35.955Z,1008.48
2016-07-21T11:32:36.015Z,1008.44
2016-07-21T11:33:35.972Z,1008.46
2016-07-21T11:34:35.982Z,1008.47
2016-07-21T11:35:35.995Z,1008.5
2016-07-21T11:36:36.002Z,1008.5
2016-07-21T11:37:36.010Z,1008.47
2016-07-21T11:38:36.017Z,1008.52
2016-07-21T11:39:36.027Z,1008.49
2016-07-21T11:40:36.035Z,1008.49
2016-07-21T11:41:36.045Z,1008.5
2016-07-21T11:42:36.053Z,1008.56
2016-07-21T11:43:36.068Z,1008.55
2016-07-21T11:44:36.071Z,1008.52
2016-07-21T11:45:36.080Z,1008.5
2016-07-21T11:46:36.103Z,1008.48
2016-07-21T11:47:36.096Z,1008.42
2016-07-21T11:48:36.107Z,1008.51
2016-07-21T11:49:37.136Z,1008.52
2016-07-21T11:50:36.122Z,1008.57
2016-07-21T11:51:36.130Z,1008.5
2016-07-21T11:52:36.137Z,1008.51
2016-07-21T11:53:36.146Z,1008.54
2016-07-21T11:54:36.155Z,1008.52
2016-07-21T11:55:36.162Z,1008.48
2016-07-21T11:56:36.170Z,1008.47
2016-07-21T11:57:36.177Z,1008.49
2016-07-21T11:58:36.184Z,1008.46
2016-07-21T11:59:36.194Z,1008.55
2016-07-21T12:00:36.202Z,1008.52
2016-07-21T12:01:36.210Z,1008.52
2016-07-21T12:02:36.219Z,1008.53
2016-07-21T12:03:36.237Z,1008.53
2016-07-21T12:04:36.237Z,1008.51
2016-07-21T12:05:36.244Z,1008.48
2016-07-21T12:06:36.254Z,1008.56
2016-07-21T12:07:36.263Z,1008.61
2016-07-21T12:08:36.358Z,1008.62